Time;durP1;ratioP1;P1;durP2;ratioP2;P2;SDS_P1;SDS_P2;PMS_P1;PMS_P2;Temp;Humidity;BMP_temperature;BMP_pressure;BME280_temperature;BME280_humidity;BME280_pressure;Samples;Min_cycle;Max_cycle;Signal;HPM_P1;HPM_P2
2020/12/24 00:00:34;;;;;;;0.50;0.50;;;9.60;99.90;;;;;;5077756;28;20185;-77
2020/12/24 00:02:59;;;;;;;0.80;0.73;;;9.50;99.90;;;;;;5076169;28;20185;-76
2020/12/24 00:05:25;;;;;;;0.70;0.70;;;9.40;99.90;;;;;;5077848;28;20209;-76
2020/12/24 00:07:51;;;;;;;0.60;0.60;;;9.30;99.90;;;;;;5075548;28;20507;-76
2020/12/24 00:10:16;;;;;;;0.70;0.70;;;9.20;99.90;;;;;;5078186;28;20269;-77
2020/12/24 00:12:42;;;;;;;0.30;0.30;;;9.20;99.90;;;;;;5079244;28;20192;-77
2020/12/24 00:15:09;;;;;;;0.40;0.40;;;9.10;99.90;;;;;;5076919;28;20252;-78
2020/12/24 00:17:35;;;;;;;0.73;0.50;;;8.90;99.90;;;;;;5080206;28;20193;-77
2020/12/24 00:20:03;;;;;;;0.70;0.60;;;8.80;99.90;;;;;;5080645;28;20258;-77
2020/12/24 00:22:28;;;;;;;1.30;1.00;;;8.90;99.90;;;;;;5080962;28;20207;-77
2020/12/24 00:24:54;;;;;;;0.60;0.60;;;8.80;99.90;;;;;;5078766;28;20215;-76
2020/12/24 00:27:19;;;;;;;0.73;0.73;;;8.80;99.90;;;;;;5079252;28;20248;-76
2020/12/24 00:29:45;;;;;;;0.57;0.57;;;8.70;99.90;;;;;;5080837;28;20181;-76
2020/12/24 00:32:11;;;;;;;0.53;0.40;;;8.70;99.90;;;;;;5079916;28;20685;-77
2020/12/24 00:34:36;;;;;;;0.73;0.73;;;8.70;99.90;;;;;;5082009;28;20649;-76
2020/12/24 00:37:02;;;;;;;0.73;0.73;;;8.70;99.90;;;;;;5077553;28;20212;-77
2020/12/24 00:39:28;;;;;;;0.70;0.70;;;8.70;99.90;;;;;;5080393;28;20181;-77
2020/12/24 00:41:53;;;;;;;0.67;0.67;;;8.70;99.90;;;;;;5081658;28;20181;-77
2020/12/24 00:44:20;;;;;;;3.97;2.40;;;8.70;99.90;;;;;;5078978;28;20694;-76
2020/12/24 00:46:46;;;;;;;1.60;1.10;;;8.70;99.90;;;;;;5080416;28;20201;-76
2020/12/24 00:49:11;;;;;;;0.80;0.70;;;8.80;99.90;;;;;;5079964;28;20814;-77
2020/12/24 00:51:37;;;;;;;0.97;0.93;;;8.90;99.90;;;;;;5080473;28;20181;-78
2020/12/24 00:54:03;;;;;;;1.43;0.60;;;8.90;99.90;;;;;;5079155;28;20216;-77
2020/12/24 00:56:29;;;;;;;0.40;0.40;;;8.90;99.90;;;;;;5079955;28;20185;-76
2020/12/24 00:58:54;;;;;;;0.50;0.50;;;9.00;99.90;;;;;;5077708;28;20192;-76
2020/12/24 01:01:20;;;;;;;0.77;0.77;;;9.00;99.90;;;;;;5080200;28;20775;-77
2020/12/24 01:03:45;;;;;;;1.00;1.00;;;9.10;99.90;;;;;;5078095;28;20884;-78
2020/12/24 01:06:12;;;;;;;1.53;0.73;;;9.10;99.90;;;;;;5078351;28;20236;-78
2020/12/24 01:08:37;;;;;;;0.40;0.40;;;9.10;99.90;;;;;;5079813;28;20213;-76
2020/12/24 01:11:03;;;;;;;0.30;0.30;;;9.40;99.90;;;;;;5083779;28;20189;-76
2020/12/24 01:13:28;;;;;;;0.30;0.30;;;9.50;99.90;;;;;;5084961;28;20264;-76
2020/12/24 01:15:54;;;;;;;0.40;0.40;;;9.70;99.90;;;;;;5082821;28;20690;-76
2020/12/24 01:18:20;;;;;;;0.30;0.30;;;9.70;99.90;;;;;;5086398;28;20177;-76
2020/12/24 01:20:45;;;;;;;0.40;0.40;;;9.70;99.90;;;;;;5085539;28;20185;-77
2020/12/24 01:23:11;;;;;;;0.43;0.43;;;9.70;99.90;;;;;;5085046;28;20185;-77
2020/12/24 01:25:36;;;;;;;0.90;0.60;;;9.60;99.90;;;;;;5085823;28;20197;-76
2020/12/24 01:28:02;;;;;;;0.83;0.60;;;9.70;99.90;;;;;;5083693;28;20658;-76
2020/12/24 01:30:28;;;;;;;0.50;0.50;;;9.60;99.90;;;;;;5083336;28;20280;-77
2020/12/24 01:32:53;;;;;;;0.60;0.60;;;9.70;99.90;;;;;;5081982;28;20189;-78
2020/12/24 01:35:20;;;;;;;0.40;0.40;;;9.70;99.90;;;;;;5082045;28;20216;-77
2020/12/24 01:37:46;;;;;;;0.40;0.40;;;9.60;99.90;;;;;;5083555;28;20319;-76
2020/12/24 01:40:12;;;;;;;0.77;0.60;;;9.50;99.90;;;;;;5081344;28;20246;-77
2020/12/24 01:42:37;;;;;;;1.00;0.80;;;9.40;99.90;;;;;;5084404;28;20185;-77
2020/12/24 01:45:04;;;;;;;0.67;0.40;;;9.30;99.90;;;;;;5080808;28;20990;-76
2020/12/24 01:47:29;;;;;;;0.53;0.50;;;9.20;99.90;;;;;;5084755;28;20179;-76
2020/12/24 01:49:55;;;;;;;0.70;0.50;;;9.20;99.90;;;;;;5084518;28;20208;-77
2020/12/24 01:52:36;;;;;;;0.20;0.20;;;9.20;99.90;;;;;;5083815;28;20491;-77
2020/12/24 01:55:09;;;;;;;0.23;0.23;;;9.10;99.90;;;;;;5080621;28;21169;-78
2020/12/24 01:57:36;;;;;;;0.27;0.23;;;9.00;99.90;;;;;;5083891;28;20177;-76
2020/12/24 02:00:11;;;;;;;0.40;0.40;;;9.00;99.90;;;;;;5082970;28;20263;-76
2020/12/24 02:02:37;;;;;;;0.37;0.37;;;9.10;99.90;;;;;;5080520;28;20195;-77
2020/12/24 02:05:04;;;;;;;0.33;0.33;;;9.10;99.90;;;;;;5082298;28;20291;-75
2020/12/24 02:07:29;;;;;;;0.37;0.37;;;9.10;99.90;;;;;;5082559;28;20184;-75
2020/12/24 02:09:55;;;;;;;0.30;0.20;;;9.00;99.90;;;;;;5082995;28;20196;-76
2020/12/24 02:12:21;;;;;;;0.40;0.40;;;9.00;99.90;;;;;;5079412;28;20193;-76
2020/12/24 02:14:47;;;;;;;0.70;0.30;;;8.90;99.90;;;;;;5078729;28;20253;-76
2020/12/24 02:17:13;;;;;;;1.47;0.60;;;8.80;99.90;;;;;;5081384;28;20604;-76
2020/12/24 02:19:41;;;;;;;0.93;0.40;;;8.80;99.90;;;;;;5078429;28;20714;-76
2020/12/24 02:22:08;;;;;;;0.30;0.30;;;8.60;99.90;;;;;;5079772;28;20212;-77
2020/12/24 02:24:36;;;;;;;0.60;0.57;;;8.60;99.90;;;;;;5080240;28;20208;-76
2020/12/24 02:27:03;;;;;;;0.43;0.37;;;8.50;99.90;;;;;;5081639;28;20185;-78
2020/12/24 02:29:28;;;;;;;0.43;0.30;;;8.40;99.90;;;;;;5077698;28;20281;-77
2020/12/24 02:31:54;;;;;;;0.40;0.40;;;8.40;99.90;;;;;;5080627;28;20275;-76
2020/12/24 02:34:19;;;;;;;0.40;0.30;;;8.30;99.90;;;;;;5079649;28;20300;-76
2020/12/24 02:36:45;;;;;;;0.20;0.20;;;8.30;99.90;;;;;;5081103;28;20646;-76
2020/12/24 02:39:11;;;;;;;0.97;0.53;;;8.30;99.90;;;;;;5081255;28;20270;-76
2020/12/24 02:41:37;;;;;;;0.33;0.30;;;8.30;99.90;;;;;;5078143;28;20196;-77
2020/12/24 02:44:03;;;;;;;0.87;0.30;;;8.30;99.90;;;;;;5079327;28;20240;-78
2020/12/24 02:46:29;;;;;;;0.50;0.50;;;8.20;99.90;;;;;;5079963;28;20236;-76
2020/12/24 02:48:54;;;;;;;0.40;0.40;;;8.20;99.90;;;;;;5081309;28;20231;-76
2020/12/24 02:51:20;;;;;;;0.53;0.30;;;8.10;99.90;;;;;;5079733;28;20779;-77
2020/12/24 02:53:46;;;;;;;0.60;0.50;;;8.10;99.90;;;;;;5079809;28;20189;-76
2020/12/24 02:56:11;;;;;;;0.40;0.40;;;8.00;99.90;;;;;;5081628;28;20705;-78
2020/12/24 02:58:37;;;;;;;1.00;0.70;;;7.90;99.90;;;;;;5078767;28;20980;-78
2020/12/24 03:01:03;;;;;;;0.50;0.50;;;7.90;99.90;;;;;;5079440;28;20323;-77
2020/12/24 03:03:28;;;;;;;0.30;0.30;;;7.90;99.90;;;;;;5079105;28;20197;-77
2020/12/24 03:05:54;;;;;;;0.63;0.40;;;8.00;99.90;;;;;;5077897;28;20270;-77
2020/12/24 03:08:19;;;;;;;0.37;0.37;;;8.00;99.90;;;;;;5077818;28;20213;-77
2020/12/24 03:10:45;;;;;;;0.77;0.37;;;8.10;99.90;;;;;;5078850;28;20197;-77
2020/12/24 03:13:11;;;;;;;0.57;0.30;;;8.10;99.90;;;;;;5079305;28;20193;-76
2020/12/24 03:15:36;;;;;;;0.37;0.37;;;8.10;99.90;;;;;;5077418;28;20221;-76
2020/12/24 03:18:02;;;;;;;1.47;0.70;;;8.10;99.90;;;;;;5077709;28;20174;-76
2020/12/24 03:20:28;;;;;;;0.67;0.40;;;8.10;99.90;;;;;;5080674;28;20193;-76
2020/12/24 03:22:54;;;;;;;0.67;0.50;;;8.10;99.90;;;;;;5078789;28;20188;-76
2020/12/24 03:25:19;;;;;;;0.37;0.37;;;8.20;99.90;;;;;;5078258;28;20227;-76
2020/12/24 03:27:45;;;;;;;0.30;0.30;;;8.20;99.90;;;;;;5077803;28;20202;-75
2020/12/24 03:30:10;;;;;;;1.20;0.83;;;8.30;99.90;;;;;;5078084;28;20226;-76
2020/12/24 03:32:37;;;;;;;1.23;0.60;;;8.40;99.90;;;;;;5076542;28;20288;-77
2020/12/24 03:35:04;;;;;;;0.40;0.40;;;8.50;99.90;;;;;;5078735;28;20281;-76
2020/12/24 03:37:29;;;;;;;1.23;0.60;;;8.60;99.90;;;;;;5078867;28;20526;-77
2020/12/24 03:39:55;;;;;;;0.63;0.50;;;8.60;99.90;;;;;;5077996;28;20214;-77
2020/12/24 03:42:21;;;;;;;0.77;0.73;;;8.60;99.90;;;;;;5078100;28;20238;-77
2020/12/24 03:44:46;;;;;;;2.60;0.70;;;8.50;99.90;;;;;;5078270;28;20215;-76
2020/12/24 03:47:12;;;;;;;1.60;0.40;;;8.50;99.90;;;;;;5079919;28;20193;-77
2020/12/24 03:49:38;;;;;;;0.93;0.50;;;8.50;99.90;;;;;;5079173;28;20189;-76
2020/12/24 03:52:03;;;;;;;1.33;0.63;;;8.50;99.90;;;;;;5079466;28;20195;-77
2020/12/24 03:54:29;;;;;;;0.57;0.57;;;8.40;99.90;;;;;;5079859;28;20223;-78
2020/12/24 03:56:54;;;;;;;0.80;0.50;;;8.30;99.90;;;;;;5079774;28;20195;-75
2020/12/24 03:59:20;;;;;;;0.43;0.43;;;8.20;99.90;;;;;;5079787;28;20682;-76
2020/12/24 04:01:45;;;;;;;2.67;0.77;;;8.20;99.90;;;;;;5078503;28;20178;-76
2020/12/24 04:04:11;;;;;;;3.67;0.90;;;8.30;99.90;;;;;;5079641;28;20197;-77
2020/12/24 04:06:37;;;;;;;2.37;0.60;;;8.30;99.90;;;;;;5077285;28;20553;-76
2020/12/24 04:09:03;;;;;;;0.40;0.40;;;8.20;99.90;;;;;;5080026;28;20264;-77
2020/12/24 04:11:29;;;;;;;3.37;1.13;;;8.20;99.90;;;;;;5077809;28;20190;-78
2020/12/24 04:13:54;;;;;;;0.60;0.50;;;8.20;99.90;;;;;;5078016;28;20534;-77
2020/12/24 04:16:21;;;;;;;0.73;0.60;;;8.10;99.90;;;;;;5077044;28;20714;-76
2020/12/24 04:18:47;;;;;;;2.40;0.90;;;8.00;99.90;;;;;;5073567;28;20558;-77
2020/12/24 04:21:12;;;;;;;0.67;0.50;;;8.10;99.90;;;;;;5075768;28;20188;-77
2020/12/24 04:23:38;;;;;;;1.90;0.70;;;8.10;99.90;;;;;;5075526;28;20656;-77
2020/12/24 04:26:03;;;;;;;1.47;0.73;;;8.00;99.90;;;;;;5077173;28;20185;-77
2020/12/24 04:28:29;;;;;;;0.80;0.47;;;8.10;99.90;;;;;;5073973;28;20279;-77
2020/12/24 04:30:54;;;;;;;0.40;0.40;;;8.10;99.90;;;;;;5075483;28;20223;-77
2020/12/24 04:33:20;;;;;;;0.70;0.40;;;8.10;99.90;;;;;;5074837;28;20207;-77
2020/12/24 04:35:45;;;;;;;1.40;0.63;;;8.00;99.90;;;;;;5074504;28;20288;-77
2020/12/24 04:38:11;;;;;;;3.73;0.90;;;8.00;99.90;;;;;;5074047;28;20672;-77
2020/12/24 04:40:37;;;;;;;1.70;0.73;;;8.10;99.90;;;;;;5076760;28;20181;-77
2020/12/24 04:43:04;;;;;;;4.23;1.37;;;8.10;99.90;;;;;;5075163;28;20230;-77
2020/12/24 04:45:32;;;;;;;1.60;0.30;;;8.10;99.90;;;;;;5075159;28;20204;-77
2020/12/24 04:47:58;;;;;;;1.13;0.50;;;8.00;99.90;;;;;;5077582;28;20177;-77
2020/12/24 04:50:29;;;;;;;1.43;0.30;;;7.90;99.90;;;;;;5094637;28;20288;-76
2020/12/24 04:52:55;;;;;;;1.33;0.30;;;7.70;99.90;;;;;;5077462;28;20259;-76
2020/12/24 04:55:21;;;;;;;1.20;0.50;;;7.70;99.90;;;;;;5077758;28;20258;-75
2020/12/24 04:57:49;;;;;;;3.23;0.73;;;7.70;99.90;;;;;;5078778;28;20180;-75
2020/12/24 05:00:18;;;;;;;1.90;1.43;;;7.80;99.90;;;;;;5076981;28;20251;-75
2020/12/24 05:02:44;;;;;;;0.60;0.60;;;7.70;99.90;;;;;;5079072;28;20260;-77
2020/12/24 05:05:10;;;;;;;1.50;0.50;;;7.70;99.90;;;;;;5078987;28;20209;-77
2020/12/24 05:07:40;;;;;;;0.40;0.40;;;7.70;99.90;;;;;;5076462;28;20219;-77
2020/12/24 05:10:12;;;;;;;0.60;0.60;;;7.70;99.90;;;;;;5077999;28;20189;-76
2020/12/24 05:12:37;;;;;;;0.30;0.30;;;7.70;99.90;;;;;;5079819;28;20275;-77
2020/12/24 05:15:03;;;;;;;2.27;0.70;;;7.60;99.90;;;;;;5076676;28;20677;-76
2020/12/24 05:17:28;;;;;;;2.07;0.33;;;7.60;99.90;;;;;;5076499;28;20188;-77
2020/12/24 05:20:05;;;;;;;0.30;0.30;;;7.50;99.90;;;;;;5074348;28;20192;-76
2020/12/24 05:22:31;;;;;;;0.60;0.50;;;7.40;99.90;;;;;;5072266;28;20901;-76
2020/12/24 05:25:11;;;;;;;1.10;0.70;;;7.40;99.90;;;;;;5075932;28;20205;-76
2020/12/24 05:27:40;;;;;;;0.40;0.40;;;7.20;99.90;;;;;;5074812;28;20169;-77
2020/12/24 05:30:05;;;;;;;0.80;0.47;;;7.20;99.90;;;;;;5071621;28;20240;-76
2020/12/24 05:32:32;;;;;;;0.73;0.50;;;7.20;99.90;;;;;;5073179;28;20670;-77
2020/12/24 05:35:05;;;;;;;0.10;0.10;;;7.20;99.90;;;;;;5073872;28;20300;-76
2020/12/24 05:37:31;;;;;;;1.30;0.53;;;7.30;99.90;;;;;;5073233;28;20267;-77
2020/12/24 05:39:57;;;;;;;0.97;0.30;;;7.30;99.90;;;;;;5075070;28;20177;-76
2020/12/24 05:42:24;;;;;;;0.60;0.50;;;7.40;99.90;;;;;;5076599;28;20196;-75
2020/12/24 05:44:50;;;;;;;1.63;0.60;;;7.40;99.90;;;;;;5076690;28;20201;-76
2020/12/24 05:47:27;;;;;;;0.70;0.70;;;7.30;99.90;;;;;;5074136;28;20178;-77
2020/12/24 05:49:52;;;;;;;0.40;0.40;;;7.40;99.90;;;;;;5074198;28;20209;-77
2020/12/24 05:52:18;;;;;;;0.27;0.27;;;7.40;99.90;;;;;;5070868;28;20209;-76
2020/12/24 05:54:46;;;;;;;0.77;0.40;;;7.40;99.90;;;;;;5071701;28;20216;-76
2020/12/24 05:57:13;;;;;;;0.60;0.60;;;7.40;99.90;;;;;;5075292;28;20603;-76
2020/12/24 05:59:41;;;;;;;0.57;0.50;;;7.40;99.90;;;;;;5076533;28;20553;-76
2020/12/24 06:02:16;;;;;;;0.57;0.40;;;7.40;99.90;;;;;;5078862;28;20182;-75
2020/12/24 06:04:44;;;;;;;1.40;0.50;;;7.40;99.90;;;;;;5082840;28;20240;-76
2020/12/24 06:07:15;;;;;;;0.97;0.90;;;7.40;99.90;;;;;;5075693;28;20195;-76
2020/12/24 06:09:42;;;;;;;0.60;0.40;;;7.40;99.90;;;;;;5079006;28;20215;-76
2020/12/24 06:12:23;;;;;;;0.77;0.40;;;7.40;99.90;;;;;;5074485;28;20710;-76
2020/12/24 06:14:50;;;;;;;0.40;0.33;;;7.50;99.90;;;;;;5079349;28;20225;-76
2020/12/24 06:17:18;;;;;;;0.30;0.30;;;7.60;99.90;;;;;;5074969;28;20208;-76
2020/12/24 06:19:44;;;;;;;1.77;0.80;;;7.60;99.90;;;;;;5075154;28;20177;-76
2020/12/24 06:22:10;;;;;;;0.30;0.30;;;7.70;99.90;;;;;;5074246;28;20185;-76
2020/12/24 06:24:42;;;;;;;0.93;0.40;;;7.70;99.90;;;;;;5076977;28;20239;-76
2020/12/24 06:27:29;;;;;;;1.23;0.27;;;7.70;99.90;;;;;;5079305;28;20192;-76
2020/12/24 06:30:02;;;;;;;1.03;0.77;;;7.80;99.90;;;;;;5073483;28;20188;-76
2020/12/24 06:32:34;;;;;;;1.17;0.97;;;7.70;99.90;;;;;;5079109;28;20280;-76
2020/12/24 06:35:00;;;;;;;0.93;0.50;;;7.70;99.90;;;;;;5076326;28;20292;-76
2020/12/24 06:37:25;;;;;;;0.80;0.30;;;7.80;99.90;;;;;;5074890;28;20603;-76
2020/12/24 06:39:53;;;;;;;0.50;0.37;;;7.80;99.90;;;;;;5077438;28;20581;-76
2020/12/24 06:42:38;;;;;;;0.43;0.40;;;7.80;99.90;;;;;;5078609;28;20177;-76
2020/12/24 06:45:20;;;;;;;1.87;0.70;;;7.80;99.90;;;;;;5078685;28;20201;-76
2020/12/24 06:48:23;;;;;;;3.77;1.37;;;7.80;99.90;;;;;;5074541;28;20181;-76
2020/12/24 06:50:49;;;;;;;0.60;0.30;;;7.70;99.90;;;;;;5078281;28;20204;-76
2020/12/24 06:53:32;;;;;;;0.57;0.53;;;7.60;99.90;;;;;;5075400;28;20188;-76
2020/12/24 06:56:17;;;;;;;0.83;0.30;;;7.60;99.90;;;;;;5077605;28;20213;-76
2020/12/24 06:59:03;;;;;;;0.33;0.33;;;7.60;99.90;;;;;;5074446;28;20177;-76
2020/12/24 07:01:31;;;;;;;0.97;0.53;;;7.60;99.90;;;;;;5074648;28;20212;-76
2020/12/24 07:04:04;;;;;;;1.57;0.40;;;7.60;99.90;;;;;;5075204;28;20182;-76
2020/12/24 07:06:42;;;;;;;1.60;0.40;;;7.60;99.90;;;;;;5075635;28;20185;-76
2020/12/24 07:09:18;;;;;;;0.20;0.20;;;7.60;99.90;;;;;;5074486;28;20177;-77
2020/12/24 07:11:48;;;;;;;1.07;0.37;;;7.50;99.90;;;;;;5080448;28;20185;-76
2020/12/24 07:14:37;;;;;;;1.00;0.60;;;7.50;99.90;;;;;;5078063;28;20228;-77
2020/12/24 07:17:12;;;;;;;1.43;0.30;;;7.40;99.90;;;;;;5077616;28;20186;-76
2020/12/24 07:19:41;;;;;;;2.03;0.40;;;7.50;99.90;;;;;;5081384;28;20181;-77
2020/12/24 07:22:09;;;;;;;1.37;0.70;;;7.40;99.90;;;;;;5078329;28;20254;-76
2020/12/24 07:24:35;;;;;;;0.43;0.40;;;7.40;99.90;;;;;;5080924;28;20224;-77
2020/12/24 07:27:03;;;;;;;5.47;1.00;;;7.40;99.90;;;;;;5080159;28;20730;-77
2020/12/24 07:29:30;;;;;;;0.60;0.37;;;7.30;99.90;;;;;;5075880;28;20196;-77
2020/12/24 07:32:02;;;;;;;1.03;0.30;;;7.30;99.90;;;;;;5074460;28;20670;-77
2020/12/24 07:34:31;;;;;;;0.40;0.30;;;7.30;99.90;;;;;;5076335;28;20221;-77
2020/12/24 07:36:56;;;;;;;0.50;0.50;;;7.30;99.90;;;;;;5075258;28;20209;-78
2020/12/24 07:39:23;;;;;;;0.27;0.27;;;7.30;99.90;;;;;;5076327;28;20282;-77
2020/12/24 07:41:48;;;;;;;0.87;0.60;;;7.30;99.90;;;;;;5071374;28;20189;-72
2020/12/24 07:44:17;;;;;;;0.40;0.40;;;7.30;99.90;;;;;;5069868;28;20309;-73
2020/12/24 07:46:44;;;;;;;0.40;0.40;;;7.30;99.90;;;;;;5083088;28;20192;-73
2020/12/24 07:49:09;;;;;;;0.57;0.57;;;7.30;99.90;;;;;;5078645;28;20173;-73
2020/12/24 07:51:35;;;;;;;7.27;0.73;;;7.30;99.90;;;;;;5065788;28;20272;-77
2020/12/24 07:54:20;;;;;;;0.40;0.30;;;7.30;99.90;;;;;;5077207;28;20677;-77
2020/12/24 07:56:46;;;;;;;0.77;0.37;;;7.40;99.90;;;;;;5074750;28;20174;-78
2020/12/24 07:59:15;;;;;;;0.30;0.30;;;7.30;99.90;;;;;;5078174;28;20245;-75
2020/12/24 08:01:41;;;;;;;0.57;0.33;;;6.90;99.90;;;;;;5078083;28;20181;-76
2020/12/24 08:04:07;;;;;;;0.30;0.20;;;6.60;99.90;;;;;;5078448;28;20197;-76
2020/12/24 08:06:33;;;;;;;0.10;0.10;;;6.40;99.90;;;;;;5077892;28;20264;-76
2020/12/24 08:09:18;;;;;;;0.40;0.37;;;6.20;99.90;;;;;;5075395;28;20714;-76
2020/12/24 08:11:57;;;;;;;0.30;0.30;;;6.00;99.90;;;;;;5076814;28;20185;-77
2020/12/24 08:14:26;;;;;;;0.20;0.20;;;5.90;99.90;;;;;;5077340;28;20251;-76
2020/12/24 08:16:53;;;;;;;0.20;0.20;;;5.80;99.90;;;;;;5075165;28;21112;-76
2020/12/24 08:19:28;;;;;;;0.20;0.20;;;5.80;99.90;;;;;;5078368;28;20185;-76
2020/12/24 08:22:07;;;;;;;0.50;0.40;;;5.70;99.90;;;;;;5077774;28;20187;-76
2020/12/24 08:24:35;;;;;;;0.27;0.27;;;5.70;99.90;;;;;;5092049;28;20213;-76
2020/12/24 08:27:03;;;;;;;0.30;0.30;;;5.70;99.90;;;;;;5076301;28;20193;-76
2020/12/24 08:29:29;;;;;;;0.40;0.40;;;5.70;99.90;;;;;;5076971;28;20203;-76
2020/12/24 08:31:56;;;;;;;0.50;0.50;;;5.70;99.90;;;;;;5078279;28;20671;-78
2020/12/24 08:34:22;;;;;;;0.70;0.70;;;5.60;99.90;;;;;;5075644;28;20879;-76
2020/12/24 08:36:49;;;;;;;1.43;0.80;;;5.50;99.90;;;;;;5077320;28;20219;-76
2020/12/24 08:39:17;;;;;;;1.50;1.30;;;5.30;99.90;;;;;;5077927;28;20610;-75
2020/12/24 08:41:46;;;;;;;2.10;1.60;;;5.10;99.90;;;;;;5091457;28;20229;-73
2020/12/24 08:44:21;;;;;;;0.63;0.47;;;5.00;99.90;;;;;;5076907;28;20212;-72
2020/12/24 08:47:11;;;;;;;0.20;0.20;;;4.90;99.90;;;;;;5074157;28;20924;-76
2020/12/24 08:49:45;;;;;;;0.20;0.20;;;4.70;99.90;;;;;;5077743;28;20177;-76
2020/12/24 08:52:17;;;;;;;0.13;0.13;;;4.70;99.90;;;;;;5077277;28;20181;-76
2020/12/24 08:55:00;;;;;;;0.83;0.83;;;4.50;99.90;;;;;;5075365;28;20221;-76
2020/12/24 08:57:26;;;;;;;0.33;0.33;;;4.40;99.90;;;;;;5077579;28;20452;-76
2020/12/24 09:00:00;;;;;;;0.10;0.10;;;4.30;99.90;;;;;;5079200;28;20214;-76
2020/12/24 09:02:30;;;;;;;0.37;0.37;;;4.30;99.90;;;;;;5079348;28;20498;-76
2020/12/24 09:04:57;;;;;;;0.50;0.50;;;4.20;99.90;;;;;;5081110;28;20296;-77
2020/12/24 09:07:43;;;;;;;0.30;0.30;;;4.30;99.90;;;;;;5072440;28;20189;-75
2020/12/24 09:10:14;;;;;;;1.70;1.23;;;4.30;99.90;;;;;;5065035;28;20197;-72
2020/12/24 09:12:42;;;;;;;0.33;0.33;;;4.20;99.90;;;;;;5074614;28;20189;-74
2020/12/24 09:15:10;;;;;;;0.60;0.40;;;4.20;99.90;;;;;;5076931;28;20217;-76
2020/12/24 09:17:46;;;;;;;0.47;0.47;;;4.20;99.90;;;;;;5075626;28;20199;-76
2020/12/24 09:20:12;;;;;;;0.40;0.40;;;4.20;99.90;;;;;;5075590;28;20181;-77
2020/12/24 09:22:49;;;;;;;0.40;0.30;;;4.20;99.90;;;;;;5077279;28;20177;-75
2020/12/24 09:25:43;;;;;;;1.47;0.60;;;4.20;99.90;;;;;;5078626;28;20223;-77
2020/12/24 09:28:28;;;;;;;0.77;0.77;;;4.20;99.90;;;;;;5071343;28;20389;-78
2020/12/24 09:30:58;;;;;;;2.03;0.70;;;4.20;99.90;;;;;;5079018;28;20250;-77
2020/12/24 09:33:24;;;;;;;0.57;0.40;;;4.10;99.90;;;;;;5079901;28;21179;-75
2020/12/24 09:35:50;;;;;;;0.50;0.50;;;4.20;99.90;;;;;;5079086;28;20723;-72
2020/12/24 09:38:16;;;;;;;0.67;0.53;;;4.20;99.90;;;;;;5077526;28;20185;-75
2020/12/24 09:40:41;;;;;;;0.80;0.77;;;4.20;99.90;;;;;;5080124;28;20180;-75
2020/12/24 09:43:08;;;;;;;1.20;1.07;;;4.20;99.90;;;;;;5071188;28;20185;-73
2020/12/24 09:45:35;;;;;;;0.80;0.80;;;4.20;99.90;;;;;;5067904;28;20272;-74
2020/12/24 09:48:00;;;;;;;0.57;0.57;;;4.20;99.90;;;;;;5072818;28;20224;-74
2020/12/24 09:50:26;;;;;;;6.73;4.80;;;4.20;99.90;;;;;;5075576;28;20813;-73
2020/12/24 09:52:52;;;;;;;2.43;2.20;;;4.30;99.90;;;;;;5076248;28;20176;-74
2020/12/24 09:55:18;;;;;;;0.83;0.70;;;4.30;99.90;;;;;;5077631;28;20240;-74
2020/12/24 09:57:43;;;;;;;0.47;0.43;;;4.40;99.90;;;;;;5075762;28;20193;-74
2020/12/24 10:00:11;;;;;;;1.17;0.87;;;4.40;99.90;;;;;;5077864;28;20185;-74
2020/12/24 10:02:37;;;;;;;0.57;0.57;;;4.30;99.90;;;;;;5077084;28;20185;-74
2020/12/24 10:05:04;;;;;;;0.40;0.40;;;4.40;99.90;;;;;;5075744;28;20216;-74
2020/12/24 10:07:30;;;;;;;0.50;0.50;;;4.40;99.90;;;;;;5075630;28;20277;-74
2020/12/24 10:09:55;;;;;;;1.10;0.80;;;4.40;99.90;;;;;;5075613;28;20268;-73
2020/12/24 10:12:26;;;;;;;0.80;0.80;;;4.40;99.90;;;;;;5075798;28;20586;-74
2020/12/24 10:14:53;;;;;;;0.60;0.50;;;4.40;99.90;;;;;;5074522;28;20845;-74
2020/12/24 10:17:23;;;;;;;3.90;2.80;;;4.50;99.90;;;;;;5074975;28;20193;-76
2020/12/24 10:19:51;;;;;;;0.60;0.60;;;4.50;99.90;;;;;;5075069;28;20186;-73
2020/12/24 10:22:17;;;;;;;0.60;0.60;;;4.50;99.90;;;;;;5072772;28;20227;-73
2020/12/24 10:24:43;;;;;;;0.50;0.50;;;4.40;99.90;;;;;;5071136;28;20213;-72
2020/12/24 10:27:10;;;;;;;0.57;0.40;;;4.50;99.90;;;;;;5079917;28;20198;-73
2020/12/24 10:29:35;;;;;;;0.30;0.30;;;4.50;99.90;;;;;;5078642;28;20189;-73
2020/12/24 10:32:01;;;;;;;0.50;0.50;;;4.50;99.90;;;;;;5076570;28;20242;-72
2020/12/24 10:34:26;;;;;;;0.70;0.60;;;4.50;99.90;;;;;;5078226;28;20693;-72
2020/12/24 10:36:52;;;;;;;0.90;0.70;;;4.50;99.90;;;;;;5073205;28;20181;-73
2020/12/24 10:39:18;;;;;;;0.83;0.77;;;4.30;99.90;;;;;;5068362;28;20174;-73
2020/12/24 10:41:49;;;;;;;0.97;0.80;;;4.30;99.90;;;;;;5078318;28;20231;-72
2020/12/24 10:44:15;;;;;;;0.70;0.70;;;4.40;99.90;;;;;;5081329;28;20505;-72
2020/12/24 10:46:40;;;;;;;0.47;0.43;;;4.30;99.90;;;;;;5077971;28;20185;-77
2020/12/24 10:49:06;;;;;;;0.57;0.57;;;4.30;99.90;;;;;;5081415;28;20189;-76
2020/12/24 10:51:31;;;;;;;0.30;0.30;;;4.40;99.90;;;;;;5080504;28;20590;-77
2020/12/24 10:53:57;;;;;;;0.20;0.20;;;4.50;99.90;;;;;;5079734;28;21275;-75
2020/12/24 10:56:23;;;;;;;0.60;0.50;;;4.50;99.90;;;;;;5082823;28;20300;-76
2020/12/24 10:58:48;;;;;;;1.50;1.07;;;4.30;99.90;;;;;;5080770;28;20264;-76
2020/12/24 11:01:17;;;;;;;1.60;0.77;;;4.20;99.90;;;;;;5079196;28;20177;-78
2020/12/24 11:03:42;;;;;;;2.53;0.90;;;4.20;99.90;;;;;;5081251;28;20180;-76
2020/12/24 11:06:19;;;;;;;0.40;0.40;;;4.20;99.90;;;;;;5079666;28;20195;-77
2020/12/24 11:08:45;;;;;;;0.70;0.60;;;4.20;99.90;;;;;;5077879;28;20189;-76
2020/12/24 11:11:10;;;;;;;1.27;1.17;;;4.00;99.90;;;;;;5080718;28;20200;-77
2020/12/24 11:13:37;;;;;;;1.27;0.50;;;4.00;99.90;;;;;;5082026;28;20188;-77
2020/12/24 11:16:03;;;;;;;0.40;0.40;;;3.90;99.90;;;;;;5079589;28;20252;-76
2020/12/24 11:18:28;;;;;;;1.30;1.00;;;3.90;99.90;;;;;;5076940;28;20560;-76
2020/12/24 11:20:55;;;;;;;0.70;0.40;;;3.90;99.90;;;;;;5077473;28;20192;-76
2020/12/24 11:23:21;;;;;;;1.17;0.90;;;3.90;99.90;;;;;;5079783;28;20181;-77
2020/12/24 11:25:47;;;;;;;1.30;0.63;;;3.90;99.90;;;;;;5077849;28;20256;-77
2020/12/24 11:28:13;;;;;;;0.50;0.50;;;3.90;99.90;;;;;;5080749;28;20213;-76
2020/12/24 11:30:38;;;;;;;0.23;0.23;;;3.90;99.90;;;;;;5077711;28;20184;-76
2020/12/24 11:33:04;;;;;;;0.40;0.40;;;3.90;99.90;;;;;;5079040;28;20276;-76
2020/12/24 11:35:29;;;;;;;0.60;0.60;;;4.00;99.90;;;;;;5079580;28;20251;-77
2020/12/24 11:37:55;;;;;;;0.30;0.23;;;3.90;99.90;;;;;;5079325;28;20192;-75
2020/12/24 11:40:21;;;;;;;0.60;0.60;;;4.00;99.90;;;;;;5077583;28;20181;-77
2020/12/24 11:42:46;;;;;;;0.40;0.40;;;4.10;99.90;;;;;;5078176;28;20200;-76
2020/12/24 11:45:12;;;;;;;0.53;0.30;;;4.20;99.90;;;;;;5078929;28;20209;-78
2020/12/24 11:47:38;;;;;;;0.50;0.50;;;4.10;99.90;;;;;;5077264;28;20679;-75
2020/12/24 11:50:04;;;;;;;0.40;0.23;;;4.30;99.90;;;;;;5080517;28;20219;-75
2020/12/24 11:52:34;;;;;;;0.40;0.40;;;4.20;99.90;;;;;;5079182;28;20193;-77
2020/12/24 11:54:59;;;;;;;0.57;0.57;;;4.20;99.90;;;;;;5076336;28;20278;-77
2020/12/24 11:57:26;;;;;;;1.23;1.13;;;4.30;99.90;;;;;;5078803;28;20220;-76
2020/12/24 11:59:51;;;;;;;1.23;1.00;;;4.30;99.90;;;;;;5079278;28;20181;-76
2020/12/24 12:02:17;;;;;;;1.20;1.10;;;4.40;99.90;;;;;;5076972;28;20186;-75
2020/12/24 12:04:42;;;;;;;1.03;0.60;;;4.30;99.90;;;;;;5077149;28;20216;-76
2020/12/24 12:07:08;;;;;;;0.50;0.50;;;4.40;99.90;;;;;;5080529;28;20283;-76
2020/12/24 12:09:33;;;;;;;0.90;0.90;;;4.40;99.90;;;;;;5078251;28;20228;-77
2020/12/24 12:11:59;;;;;;;0.90;0.73;;;4.50;99.90;;;;;;5080666;28;20189;-76
2020/12/24 12:14:25;;;;;;;1.27;0.93;;;4.50;99.90;;;;;;5078021;28;20343;-75
2020/12/24 12:16:50;;;;;;;0.97;0.60;;;4.60;99.90;;;;;;5077519;28;20193;-77
2020/12/24 12:19:16;;;;;;;2.23;1.63;;;4.60;99.90;;;;;;5080295;28;20268;-76
2020/12/24 12:21:42;;;;;;;0.70;0.70;;;4.50;99.90;;;;;;5078462;28;20289;-75
2020/12/24 12:24:07;;;;;;;1.57;1.10;;;4.50;99.90;;;;;;5076626;28;20213;-77
2020/12/24 12:26:33;;;;;;;0.63;0.63;;;4.50;99.90;;;;;;5077611;28;20217;-77
2020/12/24 12:28:58;;;;;;;1.10;1.00;;;4.60;99.90;;;;;;5080894;28;20200;-76
2020/12/24 12:31:24;;;;;;;0.90;0.90;;;4.60;99.90;;;;;;5075782;28;20894;-77
2020/12/24 12:33:54;;;;;;;0.60;0.60;;;4.60;99.90;;;;;;5076994;28;20185;-77
2020/12/24 12:36:20;;;;;;;1.10;0.90;;;4.60;99.90;;;;;;5076161;28;20271;-74
2020/12/24 12:38:47;;;;;;;1.33;1.23;;;4.60;99.90;;;;;;5075566;28;20693;-76
2020/12/24 12:41:14;;;;;;;0.60;0.60;;;4.70;99.90;;;;;;5071443;28;20176;-76
2020/12/24 12:43:41;;;;;;;0.40;0.40;;;4.70;99.90;;;;;;5077815;28;20191;-76
2020/12/24 12:46:07;;;;;;;0.60;0.60;;;4.70;99.90;;;;;;5077395;28;20197;-77
2020/12/24 12:48:33;;;;;;;0.60;0.60;;;4.60;99.90;;;;;;5079013;28;20205;-76
2020/12/24 12:50:58;;;;;;;1.13;0.73;;;4.70;99.90;;;;;;5082013;28;20216;-76
2020/12/24 12:53:24;;;;;;;1.10;0.80;;;4.70;99.90;;;;;;5077530;28;20240;-78
2020/12/24 12:55:49;;;;;;;1.43;1.20;;;4.70;99.90;;;;;;5077108;28;20217;-76
2020/12/24 12:58:15;;;;;;;2.80;1.30;;;4.80;99.90;;;;;;5073395;28;20185;-78
2020/12/24 13:00:41;;;;;;;1.30;1.20;;;4.80;99.90;;;;;;5076941;28;20226;-76